Flight Track Log - Related Links

Times and Time Zones

All times are in EDT time to prevent confusion due to time zone crossing. See the SWA378 flight status page for this flight to view local times or setup timezone preferences in your user account.

Time Position Orientation Groundspeed Altitude Reporting Facility
EDT Latitude Longitude Course Direction KTS MPH feet Rate Location/Type
Tue 11:19:42 AM 37.3167 -121.8833 141° Southeast 200 230 2,500  Level Northern Cal TRACON
Tue 11:20:41 AM 37.2775 -121.8344 135° Southeast 213 245 4,200 2,600 Climbing Oakland Center
Tue 11:21:42 AM 37.2158 -121.7564 135° Southeast 264 304 7,700 3,197 Climbing Oakland Center
Tue 11:22:43 AM 37.1556 -121.6869 137° Southeast 285 328 10,700 2,829 Climbing Oakland Center
Tue 11:23:45 AM 37.0886 -121.6106 138° Southeast 321 369 13,500 3,073 Climbing Oakland Center
Tue 11:24:46 AM 37.0097 -121.5189 137° Southeast 353 406 17,000 2,951 Climbing Oakland Center
Tue 11:25:00 AM 36.9628 -121.3746 141° Southeast  Level Estimated
Tue 11:25:47 AM 36.9333 -121.4300 137° Southeast 376 433 19,500  Level Oakland Center
Tue 11:26:48 AM 36.8511 -121.3342 137° Southeast 400 460 22,000 2,585 Climbing Oakland Center
Tue 11:27:50 AM 36.7689 -121.2308 135° Southeast 413 475 24,800 2,390 Climbing Oakland Center
Tue 11:28:51 AM 36.6967 -121.1136 128° Southeast 423 487 26,900 1,082 Climbing Oakland Center
Tue 11:29:52 AM 36.6194 -120.9964 129° Southeast 435 501 27,000 1,328 Climbing Oakland Center
Tue 11:30:53 AM 36.5422 -120.8731 128° Southeast 448 516 29,600 2,146 Climbing Oakland Center
Tue 11:31:55 AM 36.4642 -120.7561 130° Southeast 442 509 31,400 1,659 Climbing Oakland Center
Tue 11:32:56 AM 36.3864 -120.6342 128° Southeast 450 518 33,000 787 Climbing Oakland Center
Tue 11:33:57 AM 36.3050 -120.5139 130° Southeast 455 524 33,000  Level Oakland Center
Tue 11:34:58 AM 36.2222 -120.3872 129° Southeast 468 539 33,000  Level Oakland Center
Tue 11:36:00 AM 36.1231 -120.2369 129° Southeast 469 540 33,000  Level Oakland Center
Tue 11:37:01 AM 36.0408 -120.1153 130° Southeast 462 532 33,000  Level Oakland Center
Tue 11:38:02 AM 35.9586 -119.9919 129° Southeast 463 533 33,000  Level Oakland Center
Tue 11:39:03 AM 35.8778 -119.8708 129° Southeast 458 527 33,000  Level Oakland Center
Tue 11:40:05 AM 35.7981 -119.7517 129° Southeast 451 519 33,000  Level Oakland Center
Tue 11:41:06 AM 35.7181 -119.6322 129° Southeast 451 519 33,000  Level Oakland Center
Tue 11:42:07 AM 35.6372 -119.5147 130° Southeast 450 518 33,000  Level Oakland Center
Tue 11:43:08 AM 35.5578 -119.3981 130° Southeast 446 513 33,000  Level Oakland Center
Tue 11:44:21 AM 35.4639 -119.2594 130° Southeast 443 510 33,000  Level Los Angeles Center
Tue 11:45:24 AM 35.3853 -119.1436 130° Southeast 441 507 33,000  Level Los Angeles Center
Tue 11:46:26 AM 35.3067 -119.0283 130° Southeast 440 506 33,000  Level Los Angeles Center
Tue 11:47:28 AM 35.2100 -118.8878 130° Southeast 445 512 33,000  Level Los Angeles Center
Tue 11:48:30 AM 35.1281 -118.7725 131° Southeast 449 517 33,000  Level Los Angeles Center
Tue 11:49:44 AM 35.0472 -118.6567 130° Southeast 448 516 33,000 -1,235 Level Los Angeles Center
Tue 11:50:46 AM 34.9514 -118.5169 130° Southeast 448 516 30,200 -1,839 Descending Los Angeles Center
Tue 11:51:48 AM 34.8850 -118.4258 132° Southeast 436 502 29,200 -1,065 Descending Los Angeles Center
Tue 11:52:50 AM 34.7969 -118.3006 131° Southeast 413 475 28,000 -1,694 Descending Los Angeles Center
Tue 11:53:52 AM 34.7211 -118.1939 131° Southeast 419 482 25,700 -2,419 Descending Los Angeles Center
Tue 11:54:54 AM 34.6314 -118.0636 130° Southeast 423 487 23,000 -1,984 Descending Los Angeles Center
Tue 11:55:56 AM 34.5783 -117.9486 119° Southeast 393 452 21,600 -1,632 Descending Los Angeles Center
Tue 11:57:10 AM 34.5239 -117.8300 119° Southeast 402 463 19,300 -2,146 Descending Los Angeles Center
Tue 11:58:13 AM 34.4611 -117.6944 119° Southeast 387 445 16,700 -2,256 Descending Los Angeles Center
Tue 11:59:15 AM 34.4111 -117.5869 119° Southeast 373 429 14,600 -1,742 Descending Los Angeles Center
Tue 12:00:17 PM 34.3586 -117.4722 119° Southeast 343 395 13,100 -1,452 Descending Los Angeles Center
Tue 12:01:19 PM 34.3144 -117.3797 120° Southeast 323 372 11,600 -1,500 Descending Los Angeles Center
Tue 12:02:21 PM 34.2489 -117.3172 142° Southeast 294 338 10,000 -1,742 Descending Los Angeles Center
Tue 12:03:23 PM 34.1847 -117.2594 143° Southeast 285 328 8,000 -1,742 Descending Los Angeles Center
Tue 12:04:25 PM 34.0958 -117.2453 172° South 259 298 6,400 -1,113 Descending Los Angeles Center
Tue 12:05:27 PM 34.0689 -117.3142 245° Southwest 244 281 5,700 -629 Descending Los Angeles Center
Tue 12:06:29 PM 34.0556 -117.3619 251° West 206 237 5,100 -968 Descending Los Angeles Center
Tue 12:07:31 PM 34.0556 -117.4219 270° West 167 192 3,700 -1,015 Descending Los Angeles Center
Tue 12:08:45 PM 34.0561 -117.4675 271° West 149 171 2,800 -832 Descending Los Angeles Center
Tue 12:09:48 PM 34.0567 -117.5300 271° West 138 159 1,800 -803 Descending Los Angeles Center
Tue 12:10:52 PM 34.0500 -117.5833 261° West 128 147 1,100 -656 Descending Southern California TRACON
Tue 12:12:00 PM 34.0500 -117.6000 270° West  Level FlightAware Approximate
Tue 12:19:00 PM 34.0560 -117.6012 270° West  Level Estimated

Login

Don't have an account? Register now (free) for customized features, flight alerts, and more!